Motoplanete

Classement Grand Prix Movistar d'Aragon Moto2 2015

Course disputée sur le circuit de MotorLand Aragon

Position Numéro Pilote Team Temps Tours Points Départ
1 1 Tito Rabat Eg 0,0 Marc Vds 09:18:45 14 25 1
2 40 Alex Rins Paginas Amarillas Hp 40 09:20:21 14 20 2
3 22 Sam Lowes Speed Up 10:48:09 14 16 4
4 94 Jonas Folger Agr Team 11:21:28 14 13 7
5 12 Thomas Luthi Derendinger Racing Interwetten 13:57:28 14 11 8
6 5 Johann Zarco Ajo Motorsport 14:01:54 14 10 3
7 55 Hafizh Syahrin Petronas Raceline Malaysia 14:03:31 14 9 13
8 30 Takaaki Nakagami Idemitsu Honda Team Asia 14:19:41 14 8 5
9 3 Simone Corsi Athinà Forward Racing 14:29:43 14 7 11
10 7 Lorenzo Baldassarri Athinà Forward Racing 14:46:21 14 6 12
11 36 Mika Kallio Italtrans Racing Team 14:53:35 14 5 15
12 49 Alex Pons Agr Team 14:55:47 14 4 9
13 11 Sandro Cortese Dynavolt Intact Gp 15:09:28 14 3 10
14 25 Azlan Shah Idemitsu Honda Team Asia 15:31:49 14 2 17
15 23 Marcel Schrotter Tech 3 16:32:22 14 1 21
16 97 Xavi Vierge Tech 3 18:53:09 14 0 27
17 4 Randy Krummenacher Jir Racing Team 18:56:23 14 0 19
18 88 Ricard Cardus Tech 3 18:57:32 14 0 22
19 70 Robin Mulhauser Technomag Racing Interwetten 19:41:00 14 0 26
20 2 Jesko Raffin Sports-millions-emwe-sag 21:32:23 14 0 30
21 66 Florian Alt Octo Iodaracing Team 21:36:40 14 0 29
22 10 Thitipong Warokorn Aph Ptt The Pizza Sag 21:42:09 14 0 28
23 96 Louis Rossi Tasca Racing Scuderia Moto2 00:24:05 14 0 25
24 32 Frederico Fuligni Ciatti 13:20:00 13 0 24
25 73 Alex Marquez Eg 0,0 Marc Vds 07:13:47 7 0 6
26 60 Julian Simon QMMF Racing Team 10:24:53 4 0 16
27 57 Edgar Pons Paginas Amarillas Hp 40 03:02:18 3 0 23
28 39 Luis Salom Paginas Amarillas Hp 40 18:24:41 2 0 20
29 19 Xavier Simeon Federal Oil Gresini Moto2 18:18:53 2 0 18
30 77 Dominique Aegerter Technomag Racing Interwetten 01:00:00 0 0 14